createdAt,value
2023-03-18T00:00:50.135Z,2.10
2023-03-18T00:05:53.298Z,2.10
2023-03-18T00:15:39.329Z,2.07
2023-03-18T00:20:39.048Z,2.08
2023-03-18T00:25:33.117Z,1.77
2023-03-18T00:30:25.493Z,2.10
2023-03-18T00:35:19.592Z,2.07
2023-03-18T00:40:17.314Z,1.80
2023-03-18T00:45:12.075Z,1.70
2023-03-18T00:50:04.902Z,1.80
2023-03-18T00:54:56.933Z,2.05
2023-03-18T00:59:48.902Z,1.80
2023-03-18T01:04:41.024Z,1.90
2023-03-18T01:09:34.786Z,1.63
2023-03-18T01:14:27.889Z,1.73
2023-03-18T01:19:22.087Z,2.30
2023-03-18T01:24:14.240Z,1.48
2023-03-18T01:29:06.312Z,1.92
2023-03-18T01:33:59.877Z,1.60
2023-03-18T01:38:58.250Z,1.92
2023-03-18T01:43:50.457Z,1.67
2023-03-18T01:48:44.877Z,2.00
2023-03-18T01:53:41.792Z,1.80
2023-03-18T01:58:37.912Z,2.03
2023-03-18T02:03:30.037Z,1.85
2023-03-18T02:08:22.191Z,1.70
2023-03-18T02:13:16.175Z,1.48
2023-03-18T02:18:14.937Z,1.85
2023-03-18T02:23:43.922Z,1.70
2023-03-18T02:28:38.719Z,1.60
2023-03-18T02:33:36.299Z,1.63
2023-03-18T02:38:45.584Z,1.60
2023-03-18T02:43:42.698Z,1.70
2023-03-18T02:48:38.849Z,1.60
2023-03-18T02:53:34.133Z,1.60
2023-03-18T02:58:26.305Z,1.58
2023-03-18T03:03:21.904Z,1.50
2023-03-18T03:08:15.434Z,1.55
2023-03-18T03:13:38.435Z,1.40
2023-03-18T03:18:35.476Z,1.52
2023-03-18T03:23:54.702Z,1.95
2023-03-18T03:28:51.812Z,1.42
2023-03-18T03:33:48.731Z,1.48
2023-03-18T03:38:54.104Z,1.70
2023-03-18T03:43:46.101Z,1.60
2023-03-18T03:48:40.145Z,1.40
2023-03-18T03:53:36.654Z,1.77
2023-03-18T03:58:29.434Z,1.47
2023-03-18T04:03:22.689Z,1.50
2023-03-18T04:08:14.829Z,1.70
2023-03-18T04:13:08.949Z,1.52
2023-03-18T04:18:06.838Z,1.45
2023-03-18T04:22:59.506Z,1.75
2023-03-18T04:27:55.191Z,1.90
2023-03-18T04:32:53.347Z,1.30
2023-03-18T04:37:45.792Z,2.17
2023-03-18T04:42:38.924Z,1.87
2023-03-18T04:47:33.278Z,1.85
2023-03-18T04:52:25.936Z,1.65
2023-03-18T04:57:19.844Z,1.63
2023-03-18T05:02:19.985Z,1.60
2023-03-18T05:07:16.651Z,1.70
2023-03-18T05:12:21.940Z,1.73
2023-03-18T05:17:17.588Z,1.48
2023-03-18T05:22:21.088Z,1.73
2023-03-18T05:27:19.269Z,1.58
2023-03-18T05:32:20.346Z,1.60
2023-03-18T05:37:18.884Z,1.50
2023-03-18T05:42:21.574Z,1.90
2023-03-18T05:47:14.202Z,1.83
2023-03-18T05:52:21.549Z,1.63
2023-03-18T05:57:15.807Z,1.52
2023-03-18T06:02:08.372Z,1.83
2023-03-18T06:07:03.317Z,1.87
2023-03-18T06:11:57.375Z,2.10
2023-03-18T06:21:46.088Z,1.58
2023-03-18T06:26:38.285Z,1.63
2023-03-18T06:36:24.412Z,1.98
2023-03-18T06:41:18.376Z,1.80
2023-03-18T06:46:25.430Z,1.73
2023-03-18T06:51:18.696Z,1.40
2023-03-18T06:56:15.889Z,1.70
2023-03-18T07:06:22.834Z,1.50
2023-03-18T07:11:14.897Z,1.60
2023-03-18T07:16:08.779Z,1.55
2023-03-18T07:21:01.560Z,2.40
2023-03-18T07:25:53.628Z,1.50
2023-03-18T07:30:45.797Z,1.55
2023-03-18T07:35:42.085Z,1.90
2023-03-18T07:40:34.058Z,1.80
2023-03-18T07:45:25.942Z,1.58
2023-03-18T07:50:49.463Z,1.80
2023-03-18T07:55:42.020Z,1.67
2023-03-18T08:00:34.002Z,1.88
2023-03-18T08:05:47.911Z,1.60
2023-03-18T08:10:39.923Z,1.88
2023-03-18T08:15:32.131Z,1.70
2023-03-18T08:20:25.415Z,1.87
2023-03-18T08:25:27.165Z,1.70
2023-03-18T08:30:19.447Z,1.40
2023-03-18T08:35:12.975Z,2.00
2023-03-18T08:40:06.594Z,1.20
2023-03-18T08:44:58.741Z,7.15
2023-03-18T08:49:52.153Z,8.03
2023-03-18T08:54:44.076Z,8.30
2023-03-18T08:59:36.749Z,8.73
2023-03-18T09:04:30.003Z,10.00
2023-03-18T09:09:26.276Z,20.88
2023-03-18T09:14:34.526Z,14.20
2023-03-18T09:19:27.241Z,14.07
2023-03-18T09:24:19.103Z,12.48
2023-03-18T09:29:12.367Z,10.93
2023-03-18T09:34:04.386Z,10.65
2023-03-18T09:38:56.242Z,10.32
2023-03-18T09:44:04.117Z,10.25
2023-03-18T09:49:10.242Z,8.93
2023-03-18T09:54:07.128Z,7.82
2023-03-18T09:59:08.486Z,8.15
2023-03-18T10:04:40.586Z,8.23
2023-03-18T10:10:01.216Z,8.07
2023-03-18T10:15:37.569Z,7.30
2023-03-18T10:20:50.425Z,7.65
2023-03-18T10:25:53.642Z,6.45
2023-03-18T10:35:53.846Z,6.45
2023-03-18T10:40:47.842Z,6.65
2023-03-18T10:45:39.910Z,5.55
2023-03-18T10:50:36.754Z,7.07
2023-03-18T10:55:36.601Z,6.15
2023-03-18T11:00:34.066Z,6.00
2023-03-18T11:05:28.865Z,5.55
2023-03-18T11:10:26.116Z,5.75
2023-03-18T11:15:20.643Z,5.47
2023-03-18T11:20:25.415Z,6.35
2023-03-18T11:25:20.238Z,5.68
2023-03-18T11:30:33.083Z,5.72
2023-03-18T11:35:46.254Z,5.55
2023-03-18T11:40:40.342Z,5.30
2023-03-18T11:45:43.438Z,5.50
2023-03-18T11:50:41.843Z,5.75
2023-03-18T11:55:44.171Z,5.00
2023-03-18T12:00:52.686Z,4.90
2023-03-18T12:06:11.339Z,5.68
2023-03-18T12:11:16.727Z,7.72
2023-03-18T12:16:26.523Z,8.23
2023-03-18T12:22:07.026Z,6.90
2023-03-18T12:27:27.987Z,6.07
2023-03-18T12:32:28.054Z,6.40
2023-03-18T12:37:19.986Z,5.15
2023-03-18T12:42:17.672Z,5.90
2023-03-18T12:47:16.329Z,5.10
2023-03-18T12:52:27.552Z,5.38
2023-03-18T12:57:32.292Z,5.78
2023-03-18T13:02:59.488Z,5.03
2023-03-18T13:08:04.041Z,4.60
2023-03-18T13:17:49.590Z,3.88
2023-03-18T13:27:47.281Z,4.10
2023-03-18T13:32:48.168Z,5.03
2023-03-18T13:38:07.816Z,4.28
2023-03-18T13:43:01.565Z,4.45
2023-03-18T13:47:59.513Z,4.60
2023-03-18T13:52:54.436Z,4.40
2023-03-18T13:57:49.349Z,3.33
2023-03-18T14:02:41.783Z,4.55
2023-03-18T14:07:46.964Z,4.23
2023-03-18T14:12:41.369Z,4.50
2023-03-18T14:17:47.945Z,3.80
2023-03-18T14:22:40.693Z,4.03
2023-03-18T14:27:32.588Z,3.17
2023-03-18T14:32:33.504Z,3.33
2023-03-18T14:37:31.437Z,3.83
2023-03-18T14:42:23.426Z,3.42
2023-03-18T14:47:38.253Z,3.35
2023-03-18T14:52:34.717Z,3.55
2023-03-18T14:57:26.627Z,3.28
2023-03-18T15:02:28.121Z,3.42
2023-03-18T15:07:38.454Z,3.15
2023-03-18T15:12:31.097Z,2.75
2023-03-18T15:17:26.032Z,3.00
2023-03-18T15:22:26.237Z,3.10
2023-03-18T15:27:22.007Z,3.13
2023-03-18T15:32:33.170Z,3.20
2023-03-18T15:37:32.065Z,3.30
2023-03-18T15:42:24.418Z,3.45
2023-03-18T15:47:17.704Z,3.13
2023-03-18T15:52:09.616Z,3.55
2023-03-18T15:57:11.506Z,3.33
2023-03-18T16:02:06.167Z,2.70
2023-03-18T16:06:59.608Z,3.10
2023-03-18T16:12:01.127Z,3.00
2023-03-18T16:16:53.292Z,3.28
2023-03-18T16:21:45.997Z,2.80
2023-03-18T16:26:37.957Z,3.00
2023-03-18T16:31:29.826Z,2.70
2023-03-18T16:36:32.153Z,3.13
2023-03-18T16:41:24.085Z,2.40
2023-03-18T16:46:17.480Z,3.20
2023-03-18T16:51:10.792Z,2.97
2023-03-18T16:56:12.015Z,2.60
2023-03-18T17:01:07.472Z,2.92
2023-03-18T17:05:59.844Z,2.53
2023-03-18T17:10:58.170Z,2.83
2023-03-18T17:15:51.036Z,3.95
2023-03-18T17:20:44.507Z,3.50
2023-03-18T17:25:39.912Z,4.15
2023-03-18T17:30:41.014Z,4.57
2023-03-18T17:35:33.798Z,9.68
2023-03-18T17:40:28.971Z,8.10
2023-03-18T17:45:29.634Z,5.13
2023-03-18T17:50:21.547Z,4.15
2023-03-18T17:55:22.943Z,4.18
2023-03-18T18:00:16.544Z,4.45
2023-03-18T18:05:38.232Z,4.43
2023-03-18T18:10:30.146Z,4.72
2023-03-18T18:15:27.715Z,4.43
2023-03-18T18:20:21.283Z,5.13
2023-03-18T18:25:25.580Z,4.30
2023-03-18T18:30:19.988Z,4.60
2023-03-18T18:35:17.365Z,4.57
2023-03-18T18:40:11.318Z,4.93
2023-03-18T18:45:04.231Z,4.78
2023-03-18T18:49:57.624Z,4.20
2023-03-18T18:54:49.835Z,5.47
2023-03-18T18:59:41.784Z,5.60
2023-03-18T19:04:33.656Z,5.40
2023-03-18T19:09:27.343Z,5.18
2023-03-18T19:14:24.825Z,5.13
2023-03-18T19:19:26.660Z,4.82
2023-03-18T19:24:32.754Z,4.82
2023-03-18T19:29:24.958Z,4.78
2023-03-18T19:34:18.217Z,4.47
2023-03-18T19:39:18.441Z,4.35
2023-03-18T19:44:19.628Z,4.72
2023-03-18T19:49:27.960Z,4.38
2023-03-18T19:54:36.895Z,3.88
2023-03-18T19:59:37.524Z,3.75
2023-03-18T20:04:31.005Z,4.35
2023-03-18T20:09:25.091Z,4.47
2023-03-18T20:14:30.538Z,4.05
2023-03-18T20:19:26.900Z,4.40
2023-03-18T20:24:39.002Z,4.15
2023-03-18T20:29:31.463Z,4.68
2023-03-18T20:34:23.787Z,4.03
2023-03-18T20:39:20.717Z,3.70
2023-03-18T20:44:13.244Z,4.38
2023-03-18T20:49:07.457Z,4.10
2023-03-18T20:53:59.506Z,4.07
2023-03-18T20:58:51.563Z,4.07
2023-03-18T21:04:00.530Z,3.85
2023-03-18T21:08:52.611Z,3.47
2023-03-18T21:13:44.444Z,3.80
2023-03-18T21:18:37.816Z,3.90
2023-03-18T21:23:34.577Z,3.80
2023-03-18T21:28:28.364Z,3.42
2023-03-18T21:33:33.340Z,3.83
2023-03-18T21:38:27.191Z,4.00
2023-03-18T21:43:38.624Z,3.85
2023-03-18T21:48:31.621Z,3.72
2023-03-18T21:53:25.099Z,3.47
2023-03-18T21:58:22.485Z,3.80
2023-03-18T22:03:19.141Z,3.80
2023-03-18T22:08:11.000Z,3.58
2023-03-18T22:13:19.418Z,4.13
2023-03-18T22:18:15.252Z,3.63
2023-03-18T22:23:14.720Z,3.90
2023-03-18T22:28:12.517Z,4.15
2023-03-18T22:33:04.899Z,3.30
2023-03-18T22:37:58.277Z,4.87
2023-03-18T22:42:58.672Z,3.95
2023-03-18T22:48:19.891Z,4.43
2023-03-18T22:53:19.426Z,3.85
2023-03-18T22:58:19.583Z,4.07
2023-03-18T23:03:15.105Z,4.68
2023-03-18T23:08:07.398Z,4.30
2023-03-18T23:12:59.293Z,4.27
2023-03-18T23:17:51.168Z,3.60
2023-03-18T23:22:43.865Z,3.85
2023-03-18T23:27:36.899Z,4.35
2023-03-18T23:37:20.876Z,4.00
2023-03-18T23:42:16.393Z,4.00
2023-03-18T23:47:09.869Z,3.83
2023-03-18T23:52:03.573Z,3.63
2023-03-18T23:56:56.815Z,3.90
